createdAt,value
2022-11-20T00:00:06.432Z,15
2022-11-20T00:05:16.835Z,15
2022-11-20T00:11:06.384Z,14
2022-11-20T00:16:06.413Z,15
2022-11-20T00:21:06.528Z,14
2022-11-20T00:26:16.658Z,15
2022-11-20T00:31:16.705Z,14
2022-11-20T00:36:16.675Z,16
2022-11-20T00:42:06.454Z,16
2022-11-20T00:47:16.690Z,15
2022-11-20T00:52:16.710Z,14
2022-11-20T00:58:11.528Z,14
2022-11-20T01:03:26.650Z,14
2022-11-20T01:09:06.384Z,14
2022-11-20T01:14:06.368Z,16
2022-11-20T01:19:18.245Z,15
2022-11-20T01:25:06.142Z,15
2022-11-20T01:30:06.399Z,15
2022-11-20T01:35:06.987Z,15
2022-11-20T01:40:16.685Z,16
2022-11-20T01:46:06.154Z,15
2022-11-20T01:51:06.955Z,15
2022-11-20T01:56:16.763Z,15
2022-11-20T02:02:06.520Z,15
2022-11-20T02:07:16.787Z,14
2022-11-20T02:13:06.162Z,15
2022-11-20T02:18:16.445Z,15
2022-11-20T02:24:06.112Z,17
2022-11-20T02:29:06.176Z,15
2022-11-20T02:34:06.188Z,16
2022-11-20T02:39:16.412Z,17
2022-11-20T02:44:16.458Z,15
2022-11-20T02:49:16.503Z,15
2022-11-20T02:55:06.166Z,16
2022-11-20T03:00:16.453Z,15
2022-11-20T03:06:06.353Z,16
2022-11-20T03:11:16.560Z,16
2022-11-20T03:17:06.229Z,16
2022-11-20T03:22:16.375Z,16
2022-11-20T03:27:16.443Z,17
2022-11-20T03:32:16.451Z,15
2022-11-20T03:37:16.645Z,17
2022-11-20T03:42:16.614Z,16
2022-11-20T03:48:06.325Z,16
2022-11-20T03:53:16.677Z,14
2022-11-20T03:59:06.919Z,17
2022-11-20T04:04:16.431Z,15
2022-11-20T04:09:16.794Z,16
2022-11-20T04:15:06.295Z,16
2022-11-20T04:20:16.614Z,15
2022-11-20T04:26:06.154Z,15
2022-11-20T04:31:06.304Z,15
2022-11-20T04:36:17.712Z,17
2022-11-20T04:42:06.165Z,14
2022-11-20T04:47:06.513Z,15
2022-11-20T04:52:16.575Z,16
2022-11-20T04:57:16.582Z,17
2022-11-20T05:02:16.603Z,17
2022-11-20T05:07:16.692Z,17
2022-11-20T05:13:06.116Z,17
2022-11-20T05:18:06.347Z,18
2022-11-20T05:23:06.352Z,17
2022-11-20T05:28:06.615Z,18
2022-11-20T05:33:16.379Z,17
2022-11-20T05:38:16.648Z,15
2022-11-20T05:44:06.413Z,18
2022-11-20T05:49:18.993Z,19
2022-11-20T05:55:06.331Z,19
2022-11-20T06:00:16.652Z,16
2022-11-20T06:05:16.712Z,17
2022-11-20T06:11:06.361Z,17
2022-11-20T06:16:09.013Z,18
2022-11-20T06:21:16.462Z,18
2022-11-20T06:27:06.297Z,20
2022-11-20T06:32:06.752Z,18
2022-11-20T06:37:16.598Z,17
2022-11-20T06:43:06.318Z,18
2022-11-20T06:48:06.462Z,18
2022-11-20T06:53:06.549Z,18
2022-11-20T06:58:16.625Z,17
2022-11-20T07:04:06.327Z,18
2022-11-20T07:09:16.460Z,18
2022-11-20T07:15:06.333Z,17
2022-11-20T07:20:06.368Z,19
2022-11-20T07:25:07.932Z,19
2022-11-20T07:30:16.417Z,17
2022-11-20T07:36:06.073Z,25
2022-11-20T07:41:06.148Z,24
2022-11-20T07:46:16.456Z,24
2022-11-20T07:52:06.099Z,29
2022-11-20T07:57:06.287Z,25
2022-11-20T08:02:06.295Z,29
2022-11-20T08:07:16.457Z,29
2022-11-20T08:13:06.122Z,30
2022-11-20T08:18:30.123Z,32
2022-11-20T08:23:16.313Z,26
2022-11-20T08:28:21.350Z,27
2022-11-20T08:34:09.149Z,28
2022-11-20T08:39:16.306Z,28
2022-11-20T08:44:16.322Z,28
2022-11-20T08:49:16.321Z,25
2022-11-20T08:55:06.305Z,25
2022-11-20T09:00:16.592Z,25
2022-11-20T09:06:06.081Z,22
2022-11-20T09:11:06.097Z,23
2022-11-20T09:16:16.376Z,23
2022-11-20T09:22:06.072Z,25
2022-11-20T09:27:06.137Z,24
2022-11-20T09:32:06.230Z,21
2022-11-20T09:37:07.794Z,23
2022-11-20T09:42:06.319Z,24
2022-11-20T09:47:06.342Z,23
2022-11-20T09:52:16.333Z,22
2022-11-20T09:57:16.415Z,21
2022-11-20T10:02:16.580Z,22
2022-11-20T10:08:06.400Z,21
2022-11-20T10:13:16.401Z,21
2022-11-20T10:19:06.258Z,19
2022-11-20T10:24:06.297Z,21
2022-11-20T10:29:16.474Z,29
2022-11-20T10:34:22.411Z,33
2022-11-20T10:40:06.276Z,21
2022-11-20T10:45:06.831Z,23
2022-11-20T10:50:06.659Z,23
2022-11-20T10:55:16.387Z,23
2022-11-20T11:00:16.467Z,21
2022-11-20T11:06:06.284Z,21
2022-11-20T11:11:06.421Z,21
2022-11-20T11:16:06.949Z,21
2022-11-20T11:21:16.382Z,21
2022-11-20T11:26:16.710Z,20
2022-11-20T11:32:06.944Z,20
2022-11-20T11:37:16.376Z,22
2022-11-20T11:42:16.387Z,21
2022-11-20T11:48:06.264Z,35
2022-11-20T11:53:06.281Z,23
2022-11-20T11:58:16.394Z,22
2022-11-20T12:04:06.138Z,23
2022-11-20T12:09:06.246Z,22
2022-11-20T12:14:16.370Z,22
2022-11-20T12:19:16.388Z,22
2022-11-20T12:24:16.574Z,21
2022-11-20T12:30:06.157Z,23
2022-11-20T12:35:11.239Z,23
2022-11-20T12:40:06.365Z,23
2022-11-20T12:45:16.311Z,25
2022-11-20T12:50:16.364Z,22
2022-11-20T12:56:06.087Z,24
2022-11-20T13:01:06.346Z,25
2022-11-20T13:06:16.311Z,25
2022-11-20T13:11:16.330Z,25
2022-11-20T13:16:16.374Z,23
2022-11-20T13:22:06.223Z,23
2022-11-20T13:27:16.801Z,23
2022-11-20T13:33:06.251Z,21
2022-11-20T13:38:06.392Z,22
2022-11-20T13:43:16.370Z,22
2022-11-20T13:48:16.636Z,24
2022-11-20T13:54:06.267Z,21
2022-11-20T13:59:08.652Z,24
2022-11-20T14:04:16.274Z,21
2022-11-20T14:10:06.252Z,24
2022-11-20T14:15:16.270Z,25
2022-11-20T14:20:16.286Z,23
2022-11-20T14:25:16.359Z,24
2022-11-20T14:31:06.628Z,26
2022-11-20T14:36:16.348Z,26
2022-11-20T14:41:16.374Z,24
2022-11-20T14:47:06.079Z,28
2022-11-20T14:52:06.103Z,27
2022-11-20T14:57:16.371Z,26
2022-11-20T15:02:16.384Z,24
2022-11-20T15:08:06.057Z,27
2022-11-20T15:13:11.419Z,23
2022-11-20T15:18:16.404Z,22
2022-11-20T15:24:06.038Z,24
2022-11-20T15:29:16.346Z,22
2022-11-20T15:35:06.034Z,24
2022-11-20T15:40:06.084Z,27
2022-11-20T15:45:06.271Z,28
2022-11-20T15:50:16.343Z,24
2022-11-20T15:55:16.415Z,26
2022-11-20T16:01:06.251Z,27
2022-11-20T16:06:06.292Z,30
2022-11-20T16:11:16.385Z,31
2022-11-20T16:17:06.264Z,26
2022-11-20T16:22:06.252Z,24
2022-11-20T16:27:16.350Z,22
2022-11-20T16:33:06.084Z,19
2022-11-20T16:38:16.311Z,23
2022-11-20T16:44:06.121Z,18
2022-11-20T16:49:16.404Z,18
2022-11-20T16:55:05.977Z,15
2022-11-20T17:00:06.270Z,21
2022-11-20T17:05:16.316Z,14
2022-11-20T17:10:16.384Z,13
2022-11-20T17:16:06.372Z,11
2022-11-20T17:21:16.540Z,13
2022-11-20T17:27:06.229Z,9
2022-11-20T17:32:06.299Z,10
2022-11-20T17:37:16.347Z,11
2022-11-20T17:42:16.524Z,10
2022-11-20T17:48:06.224Z,9
2022-11-20T17:53:06.244Z,10
2022-11-20T17:58:06.433Z,9
2022-11-20T18:03:16.277Z,8
2022-11-20T18:08:16.309Z,9
2022-11-20T18:14:06.217Z,8
2022-11-20T18:19:16.587Z,8
2022-11-20T18:25:16.347Z,19
2022-11-20T18:31:06.057Z,8
2022-11-20T18:36:06.216Z,7
2022-11-20T18:41:07.168Z,6
2022-11-20T18:47:12.755Z,6
2022-11-20T18:52:06.304Z,18
2022-11-20T18:57:16.276Z,6
2022-11-20T19:02:16.293Z,7
2022-11-20T19:08:06.230Z,14
2022-11-20T19:13:06.236Z,12
2022-11-20T19:18:16.238Z,5
2022-11-20T19:23:16.720Z,5
2022-11-20T19:29:06.179Z,6
2022-11-20T19:34:16.500Z,11
2022-11-20T19:40:06.195Z,8
2022-11-20T19:45:06.209Z,12
2022-11-20T19:50:06.252Z,13
2022-11-20T19:55:16.495Z,10
2022-11-20T20:01:06.214Z,13
2022-11-20T20:06:06.231Z,12
2022-11-20T20:11:16.250Z,11
2022-11-20T20:17:06.249Z,15
2022-11-20T20:22:16.495Z,17
2022-11-20T20:28:06.031Z,14
2022-11-20T20:33:08.787Z,17
2022-11-20T20:38:16.889Z,16
2022-11-20T20:44:06.265Z,20
2022-11-20T20:49:16.528Z,14
2022-11-20T20:55:06.381Z,20
2022-11-20T21:00:06.037Z,12
2022-11-20T21:05:16.286Z,16
2022-11-20T21:10:21.072Z,14
2022-11-20T21:16:05.995Z,14
2022-11-20T21:21:06.022Z,15
2022-11-20T21:26:16.257Z,14
2022-11-20T21:32:06.003Z,14
2022-11-20T21:37:16.223Z,16
2022-11-20T21:42:16.263Z,16
2022-11-20T21:48:06.017Z,13
2022-11-20T21:53:06.014Z,14
2022-11-20T21:58:06.053Z,13
2022-11-20T22:03:06.176Z,15
2022-11-20T22:08:06.218Z,18
2022-11-20T22:13:16.464Z,17
2022-11-20T22:18:16.478Z,16
2022-11-20T22:23:16.528Z,17
2022-11-20T22:29:06.074Z,15
2022-11-20T22:34:06.183Z,13
2022-11-20T22:39:06.187Z,13
2022-11-20T22:44:16.434Z,11
2022-11-20T22:49:16.468Z,13
2022-11-20T22:55:06.167Z,17
2022-11-20T23:00:06.178Z,13
2022-11-20T23:05:06.204Z,14
2022-11-20T23:10:16.470Z,17
2022-11-20T23:15:16.626Z,17
2022-11-20T23:21:06.245Z,14
2022-11-20T23:26:16.226Z,16
2022-11-20T23:31:16.490Z,22
2022-11-20T23:37:06.176Z,15
2022-11-20T23:42:16.436Z,14
2022-11-20T23:47:16.475Z,14
2022-11-20T23:52:16.485Z,15
2022-11-20T23:58:06.341Z,18
